Time;durP1;ratioP1;P1;durP2;ratioP2;P2;SDS_P1;SDS_P2;PMS_P1;PMS_P2;Temp;Humidity;BMP_temperature;BMP_pressure;BME280_temperature;BME280_humidity;BME280_pressure;Samples;Min_cycle;Max_cycle;Signal;HPM_P1;HPM_P2
2023/05/10 00:00:09;;;;;;;;;17.00;13.67;23.30;46.00;;;;;;111740;1235;54315;-68
2023/05/10 00:02:56;;;;;;;;;17.00;13.00;23.30;45.60;;;;;;111749;1235;49604;-68
2023/05/10 00:05:23;;;;;;;;;16.75;15.75;23.20;45.60;;;;;;111970;1237;49576;-69
2023/05/10 00:07:50;;;;;;;;;18.50;16.00;23.20;45.60;;;;;;111771;1241;46044;-69
2023/05/10 00:10:17;;;;;;;;;17.75;15.75;23.20;45.70;;;;;;111765;1238;56319;-70
2023/05/10 00:12:44;;;;;;;;;15.75;14.75;23.20;45.70;;;;;;111773;1240;54067;-69
2023/05/10 00:15:11;;;;;;;;;20.33;17.00;23.10;45.60;;;;;;112043;1235;50003;-70
2023/05/10 00:17:38;;;;;;;;;22.00;16.00;23.10;45.80;;;;;;111727;1240;48870;-69
2023/05/10 00:20:05;;;;;;;;;20.33;17.00;23.10;45.80;;;;;;111823;1241;45787;-68
2023/05/10 00:22:33;;;;;;;;;15.00;14.00;23.10;45.80;;;;;;111706;1235;56296;-70
2023/05/10 00:25:00;;;;;;;;;16.75;15.50;23.10;45.70;;;;;;111963;1236;54004;-69
2023/05/10 00:27:27;;;;;;;;;15.25;13.75;23.10;45.80;;;;;;111782;1235;49941;-69
2023/05/10 00:29:54;;;;;;;;;16.75;15.25;23.10;46.00;;;;;;111762;1235;49877;-67
2023/05/10 00:32:21;;;;;;;;;20.33;15.67;23.10;45.90;;;;;;111724;1238;46134;-68
2023/05/10 00:34:47;;;;;;;;;16.00;15.00;23.10;46.10;;;;;;112007;1235;55045;-68
2023/05/10 00:37:14;;;;;;;;;17.00;14.00;23.10;46.30;;;;;;111711;1237;53797;-69
2023/05/10 00:39:41;;;;;;;;;22.00;16.00;23.10;47.70;;;;;;111763;1237;49105;-66
2023/05/10 00:42:08;;;;;;;;;16.67;14.00;23.10;47.20;;;;;;111724;1239;49691;-67
2023/05/10 00:44:35;;;;;;;;;15.00;13.75;23.10;46.90;;;;;;112064;1235;45514;-69
2023/05/10 00:47:02;;;;;;;;;20.00;17.00;23.10;46.80;;;;;;111797;1235;55695;-69
2023/05/10 00:49:29;;;;;;;;;15.25;14.00;23.20;46.80;;;;;;111774;1240;55028;-69
2023/05/10 00:51:57;;;;;;;;;15.75;14.75;23.20;46.90;;;;;;111746;1240;50019;-70
2023/05/10 00:54:24;;;;;;;;;21.75;15.00;23.20;47.00;;;;;;112027;1239;49638;-69
2023/05/10 00:56:51;;;;;;;;;16.00;15.00;23.20;47.00;;;;;;111589;1237;46490;-69
2023/05/10 00:59:18;;;;;;;;;15.75;12.25;23.20;47.00;;;;;;111726;1235;55073;-69
2023/05/10 01:01:46;;;;;;;;;15.25;13.75;23.20;47.00;;;;;;111688;1237;54814;-68
2023/05/10 01:04:14;;;;;;;;;17.75;16.75;23.20;47.10;;;;;;111809;1237;48850;-69
2023/05/10 01:06:41;;;;;;;;;18.75;15.25;23.20;47.10;;;;;;111873;1235;49016;-68
2023/05/10 01:09:09;;;;;;;;;18.25;15.25;23.20;47.20;;;;;;111748;1240;45942;-69
2023/05/10 01:11:38;;;;;;;;;15.50;13.00;23.30;47.10;;;;;;111767;1240;55936;-69
2023/05/10 01:14:05;;;;;;;;;18.25;15.75;23.20;47.10;;;;;;111816;1235;53789;-69
2023/05/10 01:16:37;;;;;;;;;17.67;16.67;23.20;47.10;;;;;;111805;1240;49096;-68
2023/05/10 01:19:17;;;;;;;;;15.75;14.50;23.20;47.10;;;;;;111749;1237;49759;-68
2023/05/10 01:22:14;;;;;;;;;14.50;12.50;23.20;47.10;;;;;;111746;1235;46433;-67
2023/05/10 01:24:50;;;;;;;;;14.67;13.67;23.30;47.10;;;;;;111986;1240;55861;-67
2023/05/10 01:27:56;;;;;;;;;20.50;16.25;23.20;47.00;;;;;;111719;1237;53235;-66
2023/05/10 01:30:36;;;;;;;;;18.25;14.50;23.30;47.20;;;;;;111462;1235;49286;-68
2023/05/10 01:33:15;;;;;;;;;18.25;14.25;23.20;46.90;;;;;;111767;1240;49744;-68
2023/05/10 01:36:02;;;;;;;;;15.25;14.25;23.30;46.90;;;;;;112087;1244;46261;-69
2023/05/10 01:38:50;;;;;;;;;18.00;17.00;23.30;46.90;;;;;;111707;1239;55219;-68
2023/05/10 01:41:23;;;;;;;;;16.25;15.00;23.30;47.00;;;;;;111751;1240;54396;-69
2023/05/10 01:44:31;;;;;;;;;17.75;15.00;23.30;46.80;;;;;;111760;1241;49508;-68
2023/05/10 01:47:06;;;;;;;;;15.67;14.33;23.20;46.70;;;;;;111696;1237;49318;-69
2023/05/10 01:49:39;;;;;;;;;15.75;14.75;23.20;46.70;;;;;;111744;1236;45362;-68
2023/05/10 01:52:10;;;;;;;;;17.75;16.75;23.20;46.60;;;;;;111784;1240;56633;-70
2023/05/10 01:54:43;;;;;;;;;16.75;14.00;23.20;46.50;;;;;;111897;1242;53860;-71
2023/05/10 01:57:13;;;;;;;;;18.25;15.50;23.20;46.50;;;;;;111584;1241;48805;-70
2023/05/10 01:59:43;;;;;;;;;16.67;14.00;23.20;46.40;;;;;;111660;1235;50117;-69
2023/05/10 02:02:12;;;;;;;;;19.00;16.50;23.20;46.40;;;;;;111825;1237;45244;-69
2023/05/10 02:04:40;;;;;;;;;13.75;13.00;23.10;46.50;;;;;;111958;1238;54916;-68
2023/05/10 02:07:08;;;;;;;;;20.50;16.00;23.10;46.40;;;;;;111637;1242;54898;-68
2023/05/10 02:09:37;;;;;;;;;17.75;15.00;23.10;46.30;;;;;;111599;1237;48915;-67
2023/05/10 02:12:05;;;;;;;;;19.25;15.50;23.10;46.20;;;;;;111796;1239;49457;-68
2023/05/10 02:14:36;;;;;;;;;15.00;13.00;23.00;46.30;;;;;;111967;1239;45452;-67
2023/05/10 02:17:05;;;;;;;;;16.75;13.75;23.00;46.20;;;;;;111769;1241;55672;-68
2023/05/10 02:19:34;;;;;;;;;17.00;14.25;23.10;46.20;;;;;;111752;1240;53932;-67
2023/05/10 02:22:02;;;;;;;;;15.75;14.25;23.00;46.30;;;;;;111746;1239;49783;-68
2023/05/10 02:24:30;;;;;;;;;15.25;14.25;23.00;46.10;;;;;;111972;1241;49714;-69
2023/05/10 02:26:57;;;;;;;;;17.00;16.00;23.00;46.30;;;;;;111725;1237;45472;-67
2023/05/10 02:29:25;;;;;;;;;15.50;14.25;23.00;46.10;;;;;;111678;1241;56066;-67
2023/05/10 02:31:54;;;;;;;;;14.00;13.00;22.90;45.90;;;;;;111773;1235;54663;-68
2023/05/10 02:34:22;;;;;;;;;16.50;15.75;22.90;46.50;;;;;;111992;1238;50695;-68
2023/05/10 02:36:50;;;;;;;;;18.33;15.33;22.90;46.50;;;;;;111827;1235;49164;-68
2023/05/10 02:39:19;;;;;;;;;16.75;14.00;22.90;46.00;;;;;;111778;1240;46273;-68
2023/05/10 02:41:48;;;;;;;;;15.00;14.00;22.90;46.00;;;;;;111794;1236;56127;-69
2023/05/10 02:44:18;;;;;;;;;15.00;14.00;22.90;46.00;;;;;;111948;1240;54537;-68
2023/05/10 02:46:46;;;;;;;;;15.67;14.67;22.90;46.00;;;;;;111736;1237;50024;-68
2023/05/10 02:49:15;;;;;;;;;16.25;14.25;22.90;46.00;;;;;;111593;1240;49449;-69
2023/05/10 02:51:46;;;;;;;;;15.75;14.00;22.80;45.90;;;;;;111753;1240;45572;-68
2023/05/10 02:54:27;;;;;;;;;19.50;16.75;22.80;45.90;;;;;;111926;1240;55843;-67
2023/05/10 02:56:59;;;;;;;;;15.33;13.67;22.80;46.00;;;;;;111777;1239;53381;-68
2023/05/10 02:59:26;;;;;;;;;17.00;15.75;22.80;46.00;;;;;;111855;1235;49958;-70
2023/05/10 03:01:53;;;;;;;;;13.25;12.50;22.80;46.00;;;;;;111787;1239;49731;-68
2023/05/10 03:04:20;;;;;;;;;17.25;16.25;22.80;46.20;;;;;;111992;1236;45591;-69
2023/05/10 03:06:47;;;;;;;;;19.00;18.00;22.80;46.20;;;;;;111804;1240;55424;-67
2023/05/10 03:09:15;;;;;;;;;16.33;15.33;22.80;46.20;;;;;;111648;1236;53951;-67
2023/05/10 03:11:42;;;;;;;;;17.75;14.75;22.80;46.40;;;;;;111761;1235;49415;-67
2023/05/10 03:14:26;;;;;;;;;20.00;14.75;22.80;46.40;;;;;;111677;1239;50186;-67
2023/05/10 03:17:08;;;;;;;;;17.25;16.50;22.80;46.50;;;;;;111684;1241;45395;-68
2023/05/10 03:19:44;;;;;;;;;16.67;15.67;22.80;46.70;;;;;;111685;1237;55518;-68
2023/05/10 03:22:13;;;;;;;;;18.33;15.67;22.80;46.50;;;;;;111756;1235;53519;-68
2023/05/10 03:24:41;;;;;;;;;16.75;15.75;22.80;46.60;;;;;;112082;1236;49677;-68
2023/05/10 03:27:08;;;;;;;;;18.25;17.25;22.80;46.80;;;;;;111610;1241;48987;-69
2023/05/10 03:29:36;;;;;;;;;18.00;16.00;22.80;46.60;;;;;;111737;1235;46630;-66
2023/05/10 03:32:03;;;;;;;;;16.00;15.00;22.80;46.60;;;;;;111718;1235;55007;-65
2023/05/10 03:34:31;;;;;;;;;16.00;15.00;22.90;46.40;;;;;;111546;1237;53725;-64
2023/05/10 03:36:58;;;;;;;;;18.00;16.00;22.80;46.10;;;;;;111681;1235;49442;-64
2023/05/10 03:39:25;;;;;;;;;16.00;13.75;22.90;45.80;;;;;;111779;1236;48892;-64
2023/05/10 03:41:52;;;;;;;;;15.75;14.75;22.90;45.60;;;;;;111812;1240;45295;-64
2023/05/10 03:44:19;;;;;;;;;14.00;12.25;22.80;45.30;;;;;;111934;1241;55563;-65
2023/05/10 03:46:46;;;;;;;;;17.25;15.00;22.80;45.10;;;;;;111699;1239;54154;-65
2023/05/10 03:49:13;;;;;;;;;15.75;14.75;22.80;45.00;;;;;;111693;1241;49342;-66
2023/05/10 03:51:40;;;;;;;;;20.33;15.33;22.80;44.80;;;;;;111676;1237;49248;-65
2023/05/10 03:54:06;;;;;;;;;16.75;14.75;22.80;45.20;;;;;;111843;1237;45124;-65
2023/05/10 03:56:33;;;;;;;;;13.75;11.75;22.70;45.20;;;;;;111772;1238;55327;-66
2023/05/10 03:59:00;;;;;;;;;17.00;14.00;22.70;45.60;;;;;;111773;1238;54904;-66
2023/05/10 04:01:27;;;;;;;;;16.00;15.00;22.70;45.40;;;;;;111764;1240;49599;-71
2023/05/10 04:03:54;;;;;;;;;19.50;15.75;22.70;46.00;;;;;;111804;1237;49845;-71
2023/05/10 04:06:21;;;;;;;;;22.33;16.00;22.60;47.50;;;;;;111939;1238;46452;-72
2023/05/10 04:08:48;;;;;;;;;17.50;15.50;22.70;47.80;;;;;;111708;1238;55849;-71
2023/05/10 04:11:15;;;;;;;;;16.25;13.75;22.70;47.70;;;;;;111806;1237;54392;-70
2023/05/10 04:13:42;;;;;;;;;17.25;13.75;22.80;47.70;;;;;;111824;1238;48981;-76
2023/05/10 04:16:09;;;;;;;;;20.50;16.50;22.80;47.30;;;;;;112145;1237;50078;-75
2023/05/10 04:18:36;;;;;;;;;17.50;14.25;22.90;47.20;;;;;;111802;1236;46472;-75
2023/05/10 04:21:03;;;;;;;;;18.33;16.00;22.90;46.50;;;;;;111833;1237;55418;-75
2023/05/10 04:23:30;;;;;;;;;15.25;14.25;22.90;46.50;;;;;;111718;1235;53568;-75
2023/05/10 04:26:01;;;;;;;;;14.00;13.00;22.90;46.10;;;;;;111674;1240;49427;-70
2023/05/10 04:28:28;;;;;;;;;17.00;16.00;22.90;46.00;;;;;;111653;1241;49737;-70
2023/05/10 04:31:06;;;;;;;;;16.75;15.25;22.80;45.70;;;;;;111685;1240;46000;-70
2023/05/10 04:33:34;;;;;;;;;18.75;16.00;22.90;45.70;;;;;;111578;1239;55839;-70
2023/05/10 04:36:01;;;;;;;;;22.00;18.00;22.80;45.60;;;;;;111633;1237;54779;-69
2023/05/10 04:38:29;;;;;;;;;16.75;16.00;22.80;45.50;;;;;;111557;1240;49395;-69
2023/05/10 04:41:09;;;;;;;;;20.75;16.50;22.90;45.50;;;;;;111661;1235;50405;-70
2023/05/10 04:43:37;;;;;;;;;17.25;16.00;22.80;45.30;;;;;;111576;1235;45278;-68
2023/05/10 04:46:07;;;;;;;;;19.00;17.00;22.80;45.30;;;;;;111509;1242;55815;-68
2023/05/10 04:48:34;;;;;;;;;18.75;17.50;22.80;45.30;;;;;;111655;1242;53511;-70
2023/05/10 04:51:01;;;;;;;;;22.25;18.25;22.80;45.20;;;;;;111651;1240;49695;-69
2023/05/10 04:53:28;;;;;;;;;15.75;14.50;22.70;45.10;;;;;;111713;1235;49122;-68
2023/05/10 04:55:55;;;;;;;;;18.75;16.00;22.70;45.60;;;;;;111597;1237;46215;-68
2023/05/10 04:58:22;;;;;;;;;14.00;13.00;22.70;45.10;;;;;;111679;1238;55317;-67
2023/05/10 05:00:49;;;;;;;;;17.00;15.75;22.70;45.70;;;;;;111760;1235;53883;-64
2023/05/10 05:03:16;;;;;;;;;20.67;18.00;22.60;46.40;;;;;;111837;1240;49568;-64
2023/05/10 05:05:44;;;;;;;;;18.00;17.00;22.60;45.90;;;;;;111997;1240;48991;-65
2023/05/10 05:08:11;;;;;;;;;17.00;14.00;22.60;45.90;;;;;;111781;1238;45521;-69
2023/05/10 05:10:38;;;;;;;;;18.75;15.50;22.60;45.80;;;;;;111806;1236;55590;-67
2023/05/10 05:13:05;;;;;;;;;20.00;15.00;22.60;45.80;;;;;;111942;1237;53133;-69
2023/05/10 05:15:33;;;;;;;;;20.67;16.67;22.60;45.80;;;;;;112122;1241;52782;-70
2023/05/10 05:18:00;;;;;;;;;20.00;18.50;22.60;46.80;;;;;;111833;1235;49275;-68
2023/05/10 05:20:27;;;;;;;;;21.50;17.50;22.60;47.40;;;;;;111610;1237;45627;-77
2023/05/10 05:22:54;;;;;;;;;17.25;16.00;22.60;47.30;;;;;;111710;1241;55091;-80
2023/05/10 05:25:21;;;;;;;;;28.50;23.00;22.60;46.70;;;;;;112259;1239;53554;-75
2023/05/10 05:27:48;;;;;;;;;26.25;20.25;22.70;46.70;;;;;;111802;1235;49348;-65
2023/05/10 05:30:15;;;;;;;;;24.25;18.50;22.70;46.90;;;;;;111819;1235;50263;-65
2023/05/10 05:32:42;;;;;;;;;26.50;18.75;22.70;46.90;;;;;;111695;1240;45666;-73
2023/05/10 05:35:09;;;;;;;;;24.50;21.25;22.70;47.50;;;;;;112042;1235;55707;-65
2023/05/10 05:37:37;;;;;;;;;31.25;24.25;22.70;47.90;;;;;;111771;1235;54078;-65
2023/05/10 05:40:04;;;;;;;;;38.75;30.00;22.80;47.60;;;;;;111634;1235;49676;-65
2023/05/10 05:42:31;;;;;;;;;35.33;25.67;22.80;48.60;;;;;;111630;1238;49696;-64
2023/05/10 05:44:58;;;;;;;;;33.00;29.00;22.80;48.30;;;;;;111751;1241;45556;-65
2023/05/10 05:47:25;;;;;;;;;30.25;24.25;22.70;47.80;;;;;;111658;1241;55644;-63
2023/05/10 05:49:52;;;;;;;;;36.25;25.50;22.80;47.70;;;;;;111457;1238;54351;-64
2023/05/10 05:52:21;;;;;;;;;33.00;24.00;22.80;47.30;;;;;;111827;1240;49285;-63
2023/05/10 05:54:47;;;;;;;;;27.50;22.50;22.80;47.10;;;;;;111596;1237;50102;-63
2023/05/10 05:57:14;;;;;;;;;27.67;22.00;22.80;46.70;;;;;;111597;1240;45801;-63
2023/05/10 05:59:43;;;;;;;;;29.00;24.00;22.80;46.50;;;;;;111644;1237;56047;-64
2023/05/10 06:02:10;;;;;;;;;26.33;23.33;22.80;46.50;;;;;;111671;1235;54947;-65
2023/05/10 06:04:38;;;;;;;;;28.33;25.33;22.80;46.20;;;;;;111679;1241;49640;-64
2023/05/10 06:07:05;;;;;;;;;27.00;21.75;22.80;46.20;;;;;;111672;1236;49507;-64
2023/05/10 06:09:32;;;;;;;;;27.00;23.00;22.80;46.10;;;;;;111737;1235;45175;-64
2023/05/10 06:11:59;;;;;;;;;30.67;25.33;22.80;46.60;;;;;;111740;1237;55429;-66
2023/05/10 06:14:26;;;;;;;;;29.25;23.50;22.70;46.70;;;;;;111686;1244;53612;-63
2023/05/10 06:16:53;;;;;;;;;34.25;28.00;22.70;46.20;;;;;;111738;1235;50384;-63
2023/05/10 06:19:20;;;;;;;;;29.50;26.00;22.70;46.20;;;;;;111658;1237;49930;-63
2023/05/10 06:21:47;;;;;;;;;27.33;23.00;22.70;46.10;;;;;;111715;1241;46706;-63
2023/05/10 06:24:14;;;;;;;;;25.33;23.00;22.60;46.00;;;;;;111708;1235;54933;-63
2023/05/10 06:26:40;;;;;;;;;25.50;21.50;22.60;46.00;;;;;;111665;1240;53471;-63
2023/05/10 06:29:07;;;;;;;;;27.50;23.00;22.60;46.00;;;;;;111682;1236;49945;-63
2023/05/10 06:31:34;;;;;;;;;24.50;21.75;22.60;45.90;;;;;;111599;1236;49821;-63
2023/05/10 06:34:01;;;;;;;;;35.75;26.25;22.60;45.90;;;;;;111675;1237;46922;-63
2023/05/10 06:36:28;;;;;;;;;25.00;21.33;22.60;45.80;;;;;;111701;1238;56658;-63
2023/05/10 06:38:55;;;;;;;;;27.75;21.50;22.60;45.80;;;;;;111616;1236;53552;-62
2023/05/10 06:41:22;;;;;;;;;22.50;19.00;22.60;45.70;;;;;;111714;1241;49744;-64
2023/05/10 06:43:49;;;;;;;;;29.00;22.75;22.60;45.20;;;;;;111683;1235;50189;-65
2023/05/10 06:46:16;;;;;;;;;26.00;24.00;22.60;45.50;;;;;;111714;1241;45473;-62
2023/05/10 06:48:43;;;;;;;;;26.00;21.00;22.60;45.60;;;;;;111816;1238;55880;-63
2023/05/10 06:51:10;;;;;;;;;24.00;18.00;22.60;45.30;;;;;;111689;1235;53438;-63
2023/05/10 06:53:37;;;;;;;;;28.75;22.50;22.60;45.20;;;;;;111601;1238;50120;-63
2023/05/10 06:56:04;;;;;;;;;29.67;22.00;22.60;45.20;;;;;;111673;1235;50669;-64
2023/05/10 06:58:32;;;;;;;;;19.75;19.00;22.60;45.10;;;;;;111629;1235;46019;-63
2023/05/10 07:01:03;;;;;;;;;25.75;19.00;22.70;45.10;;;;;;111635;1240;56920;-64
2023/05/10 07:03:31;;;;;;;;;24.00;19.67;22.60;44.90;;;;;;111741;1239;53633;-64
2023/05/10 07:06:07;;;;;;;;;22.33;21.00;22.70;45.00;;;;;;111679;1240;49398;-63
2023/05/10 07:08:34;;;;;;;;;32.50;22.00;22.70;45.10;;;;;;111626;1240;49280;-64
2023/05/10 07:11:07;;;;;;;;;25.67;22.00;22.70;44.90;;;;;;111753;1239;45982;-64
2023/05/10 07:13:34;;;;;;;;;24.00;20.75;22.70;44.80;;;;;;111607;1237;55181;-63
2023/05/10 07:16:02;;;;;;;;;24.33;19.67;22.70;44.90;;;;;;111466;1240;53323;-64
2023/05/10 07:18:29;;;;;;;;;26.50;22.00;22.70;44.60;;;;;;111573;1239;50428;-63
2023/05/10 07:20:57;;;;;;;;;19.00;17.50;22.80;44.70;;;;;;111721;1236;49647;-64
2023/05/10 07:23:23;;;;;;;;;24.50;19.75;22.80;44.60;;;;;;111728;1240;46283;-63
2023/05/10 07:25:52;;;;;;;;;23.75;19.00;22.80;44.50;;;;;;111738;1235;56158;-63
2023/05/10 07:28:19;;;;;;;;;23.00;18.00;22.80;44.50;;;;;;111551;1240;54622;-64
2023/05/10 07:30:46;;;;;;;;;24.00;18.00;22.80;44.30;;;;;;111674;1239;49021;-64
2023/05/10 07:33:14;;;;;;;;;27.67;20.00;22.90;44.30;;;;;;111655;1238;48836;-64
2023/05/10 07:35:42;;;;;;;;;25.33;17.67;22.90;44.30;;;;;;111736;1235;45273;-64
2023/05/10 07:38:10;;;;;;;;;20.75;17.25;22.90;44.20;;;;;;111659;1241;56263;-64
2023/05/10 07:40:39;;;;;;;;;21.75;19.50;23.00;44.20;;;;;;111529;1238;53988;-62
2023/05/10 07:43:06;;;;;;;;;22.75;19.00;23.00;44.20;;;;;;111660;1235;49521;-64
2023/05/10 07:45:33;;;;;;;;;22.50;19.75;23.00;44.20;;;;;;111697;1235;50127;-62
2023/05/10 07:48:00;;;;;;;;;23.00;19.00;23.00;43.90;;;;;;111710;1240;46025;-64
2023/05/10 07:50:27;;;;;;;;;16.33;15.00;23.10;43.90;;;;;;111596;1238;56019;-64
2023/05/10 07:52:54;;;;;;;;;20.33;17.00;23.10;43.80;;;;;;111695;1240;53692;-63
2023/05/10 07:55:21;;;;;;;;;23.00;18.00;23.10;44.00;;;;;;111705;1239;49829;-65
2023/05/10 07:57:49;;;;;;;;;18.00;17.00;23.20;43.80;;;;;;111656;1242;49603;-64
2023/05/10 08:00:20;;;;;;;;;18.00;16.00;23.20;43.90;;;;;;111690;1240;45907;-64
2023/05/10 08:02:47;;;;;;;;;23.25;18.25;23.20;43.90;;;;;;111716;1240;55654;-64
2023/05/10 08:05:14;;;;;;;;;20.33;16.67;23.30;43.70;;;;;;111707;1235;53857;-63
2023/05/10 08:07:42;;;;;;;;;20.00;14.75;23.30;43.60;;;;;;111629;1240;50389;-64
2023/05/10 08:10:10;;;;;;;;;24.25;18.50;23.40;43.60;;;;;;111643;1236;50183;-64
2023/05/10 08:12:38;;;;;;;;;18.33;16.00;23.40;43.50;;;;;;111650;1241;45845;-64
2023/05/10 08:15:06;;;;;;;;;16.00;15.00;23.40;43.50;;;;;;111665;1237;55100;-64
2023/05/10 08:17:33;;;;;;;;;18.50;16.50;23.40;43.40;;;;;;111685;1239;53797;-64
2023/05/10 08:20:00;;;;;;;;;20.33;14.67;23.50;43.60;;;;;;111534;1237;50263;-65
2023/05/10 08:22:27;;;;;;;;;20.00;15.00;23.50;43.30;;;;;;111566;1240;49625;-65
2023/05/10 08:24:54;;;;;;;;;19.00;17.00;23.50;43.40;;;;;;111672;1240;46086;-65
2023/05/10 08:27:21;;;;;;;;;19.67;15.00;23.60;43.30;;;;;;111696;1237;55795;-66
2023/05/10 08:29:48;;;;;;;;;19.75;15.50;23.60;43.20;;;;;;111675;1239;54160;-65
2023/05/10 08:32:15;;;;;;;;;16.00;15.00;23.60;43.10;;;;;;111698;1242;49632;-63
2023/05/10 08:34:42;;;;;;;;;18.50;15.25;23.70;43.10;;;;;;111692;1235;48780;-63
2023/05/10 08:37:10;;;;;;;;;18.00;14.00;23.70;43.10;;;;;;111622;1240;46757;-63
2023/05/10 08:39:37;;;;;;;;;18.00;16.00;23.80;43.10;;;;;;111691;1236;55919;-64
2023/05/10 08:42:04;;;;;;;;;18.50;16.00;23.80;43.00;;;;;;111696;1237;54697;-63
2023/05/10 08:44:36;;;;;;;;;19.50;17.00;23.80;43.20;;;;;;111599;1241;50060;-64
2023/05/10 08:47:06;;;;;;;;;20.50;15.50;23.80;43.40;;;;;;111709;1235;49349;-64
2023/05/10 08:49:33;;;;;;;;;20.33;15.67;23.90;42.90;;;;;;111674;1237;46104;-65
2023/05/10 08:52:05;;;;;;;;;18.25;14.75;23.90;42.80;;;;;;111658;1240;55344;-64
2023/05/10 08:54:33;;;;;;;;;19.67;15.67;23.90;42.80;;;;;;111633;1241;53573;-65
2023/05/10 08:57:00;;;;;;;;;18.75;16.00;24.00;43.00;;;;;;111562;1235;50403;-64
2023/05/10 08:59:28;;;;;;;;;14.50;13.00;24.10;42.80;;;;;;111041;1237;721566;-64
2023/05/10 09:01:59;;;;;;;;;19.50;15.00;24.10;42.70;;;;;;111667;1238;45784;-65
2023/05/10 09:04:26;;;;;;;;;15.67;14.67;24.10;42.80;;;;;;111476;1238;55974;-63
2023/05/10 09:06:53;;;;;;;;;18.25;15.50;24.20;42.80;;;;;;111653;1237;54102;-63
2023/05/10 09:09:21;;;;;;;;;16.00;13.50;24.20;42.80;;;;;;111680;1241;48880;-64
2023/05/10 09:11:48;;;;;;;;;16.00;15.00;24.30;42.80;;;;;;111420;1241;48917;-63
2023/05/10 09:14:15;;;;;;;;;16.75;14.00;24.30;42.50;;;;;;111716;1235;45400;-63
2023/05/10 09:16:42;;;;;;;;;18.75;14.00;24.30;42.60;;;;;;111640;1240;56083;-63
2023/05/10 09:19:10;;;;;;;;;16.75;11.00;24.40;42.80;;;;;;111533;1240;53564;-64
2023/05/10 09:21:40;;;;;;;;;21.25;15.25;24.40;42.50;;;;;;111793;1235;49191;-64
2023/05/10 09:24:08;;;;;;;;;17.00;14.75;24.40;42.40;;;;;;111502;1242;49176;-64
2023/05/10 09:26:36;;;;;;;;;17.00;14.67;24.50;42.40;;;;;;111629;1235;46847;-63
2023/05/10 09:29:03;;;;;;;;;18.33;17.33;24.50;42.30;;;;;;111605;1240;55644;-64
2023/05/10 09:31:47;;;;;;;;;17.00;14.50;24.50;42.30;;;;;;111667;1238;53737;-63
2023/05/10 09:34:32;;;;;;;;;15.25;14.25;24.50;42.30;;;;;;111666;1235;50598;-65
2023/05/10 09:37:02;;;;;;;;;19.00;14.00;24.60;42.30;;;;;;111513;1243;49599;-63
2023/05/10 09:39:36;;;;;;;;;15.00;14.00;24.60;42.20;;;;;;111593;1235;46131;-63
2023/05/10 09:42:09;;;;;;;;;18.33;15.67;24.60;41.90;;;;;;111682;1235;55093;-62
2023/05/10 09:44:37;;;;;;;;;16.25;14.25;24.70;42.20;;;;;;111640;1240;54968;-64
2023/05/10 09:47:05;;;;;;;;;17.00;13.50;24.70;42.10;;;;;;111532;1238;49397;-62
2023/05/10 09:49:33;;;;;;;;;16.00;15.00;24.70;42.10;;;;;;111631;1235;49937;-62
2023/05/10 09:52:04;;;;;;;;;14.25;13.25;24.80;42.10;;;;;;111692;1235;46009;-64
2023/05/10 09:54:33;;;;;;;;;15.50;14.50;24.80;42.10;;;;;;111604;1240;55797;-67
2023/05/10 09:57:01;;;;;;;;;14.75;13.75;24.80;42.10;;;;;;111664;1235;54628;-62
2023/05/10 09:59:29;;;;;;;;;13.00;12.00;24.80;42.20;;;;;;111672;1235;50843;-62
2023/05/10 10:01:58;;;;;;;;;17.25;13.75;24.90;42.00;;;;;;111679;1235;49066;-62
2023/05/10 10:04:25;;;;;;;;;12.33;11.33;24.90;42.00;;;;;;111688;1240;45962;-62
2023/05/10 10:07:00;;;;;;;;;14.00;13.00;24.90;42.00;;;;;;111400;1243;55260;-64
2023/05/10 10:09:28;;;;;;;;;16.25;13.75;25.00;42.10;;;;;;111672;1237;54408;-64
2023/05/10 10:11:56;;;;;;;;;15.00;10.00;25.00;42.10;;;;;;111644;1238;49831;-64
2023/05/10 10:14:24;;;;;;;;;16.25;12.00;25.10;42.00;;;;;;111875;1242;49718;-64
2023/05/10 10:16:52;;;;;;;;;15.25;14.00;25.10;41.90;;;;;;111774;1242;45096;-62
2023/05/10 10:19:22;;;;;;;;;15.75;14.00;25.10;42.10;;;;;;111792;1236;56062;-62
2023/05/10 10:21:50;;;;;;;;;17.00;14.33;25.20;41.90;;;;;;111815;1239;53941;-63
2023/05/10 10:24:17;;;;;;;;;17.25;14.50;25.20;41.80;;;;;;111950;1238;50372;-64
2023/05/10 10:26:45;;;;;;;;;15.75;12.00;25.20;41.70;;;;;;111855;1238;49685;-63
2023/05/10 10:29:26;;;;;;;;;18.67;14.67;25.30;41.70;;;;;;111662;1242;45355;-63
2023/05/10 10:31:54;;;;;;;;;13.00;12.00;25.40;41.70;;;;;;111726;1235;55645;-63
2023/05/10 10:34:29;;;;;;;;;12.00;11.00;25.40;41.90;;;;;;111666;1240;54495;-64
2023/05/10 10:36:57;;;;;;;;;15.75;14.25;25.40;41.70;;;;;;111610;1238;49775;-64
2023/05/10 10:39:27;;;;;;;;;12.75;11.50;25.50;41.70;;;;;;111613;1241;49633;-62
2023/05/10 10:41:56;;;;;;;;;14.00;13.00;25.50;41.60;;;;;;111539;1242;45274;-63
2023/05/10 10:44:25;;;;;;;;;15.25;13.00;25.50;41.60;;;;;;111665;1237;55839;-62
2023/05/10 10:47:08;;;;;;;;;16.00;12.50;25.50;41.80;;;;;;111744;1240;53790;-64
2023/05/10 10:49:41;;;;;;;;;17.00;12.75;25.50;41.70;;;;;;111687;1236;49440;-63
2023/05/10 10:52:23;;;;;;;;;15.75;13.50;25.60;41.40;;;;;;111639;1240;49483;-62
2023/05/10 10:54:52;;;;;;;;;15.75;13.75;25.60;41.60;;;;;;112051;1235;46823;-63
2023/05/10 10:57:21;;;;;;;;;16.50;12.50;25.60;41.40;;;;;;111518;1241;55398;-62
2023/05/10 10:59:49;;;;;;;;;14.33;12.33;25.70;41.40;;;;;;111696;1238;53739;-63
2023/05/10 11:02:43;;;;;;;;;12.75;11.50;25.70;41.30;;;;;;111681;1235;49829;-64
2023/05/10 11:05:36;;;;;;;;;16.00;12.00;25.70;41.90;;;;;;111695;1239;49043;-63
2023/05/10 11:08:09;;;;;;;;;15.00;10.50;25.70;41.30;;;;;;111708;1240;47288;-62
2023/05/10 11:10:36;;;;;;;;;13.25;12.00;25.80;41.80;;;;;;111645;1236;55285;-63
2023/05/10 11:13:05;;;;;;;;;14.00;11.00;25.80;41.20;;;;;;111680;1235;55036;-63
2023/05/10 11:15:37;;;;;;;;;15.50;13.25;25.80;41.20;;;;;;111697;1237;49723;-64
2023/05/10 11:18:22;;;;;;;;;14.00;11.75;25.80;41.20;;;;;;111783;1238;50393;-64
2023/05/10 11:20:59;;;;;;;;;11.25;10.25;25.80;41.20;;;;;;111690;1239;45819;-62
2023/05/10 11:23:31;;;;;;;;;13.25;11.00;25.80;41.20;;;;;;111491;1237;56150;-62
2023/05/10 11:26:00;;;;;;;;;12.50;12.00;25.80;41.10;;;;;;111425;1237;54662;-62
2023/05/10 11:28:27;;;;;;;;;15.50;13.25;25.80;41.10;;;;;;111484;1242;49742;-70
2023/05/10 11:30:54;;;;;;;;;12.00;11.00;25.80;41.00;;;;;;111677;1236;49874;-65
2023/05/10 11:33:21;;;;;;;;;12.00;11.00;25.80;41.20;;;;;;111499;1238;46093;-67
2023/05/10 11:35:48;;;;;;;;;13.75;13.00;25.80;41.00;;;;;;111448;1241;55842;-62
2023/05/10 11:38:15;;;;;;;;;13.75;12.75;25.80;41.10;;;;;;111624;1235;54041;-63
2023/05/10 11:40:42;;;;;;;;;17.75;12.75;25.80;41.10;;;;;;111614;1240;50471;-63
2023/05/10 11:43:10;;;;;;;;;16.00;12.75;25.80;41.10;;;;;;111734;1235;49709;-63
2023/05/10 11:45:41;;;;;;;;;12.25;11.25;25.80;41.10;;;;;;111647;1235;45966;-63
2023/05/10 11:48:08;;;;;;;;;16.67;13.67;25.70;41.10;;;;;;111688;1239;55284;-63
2023/05/10 11:50:35;;;;;;;;;11.75;10.75;25.80;41.40;;;;;;111651;1237;53929;-64
2023/05/10 11:53:02;;;;;;;;;13.00;12.00;25.80;41.20;;;;;;111652;1240;50378;-64
2023/05/10 11:55:30;;;;;;;;;13.33;12.33;25.80;41.20;;;;;;111551;1238;49764;-63
2023/05/10 11:58:02;;;;;;;;;14.25;11.00;25.70;41.20;;;;;;111529;1237;46443;-65
2023/05/10 12:00:30;;;;;;;;;13.50;11.00;25.70;41.10;;;;;;111453;1241;57128;-64
2023/05/10 12:02:57;;;;;;;;;14.50;13.50;25.70;41.00;;;;;;111619;1237;53529;-64
2023/05/10 12:05:25;;;;;;;;;16.25;12.00;25.70;41.20;;;;;;111696;1242;49457;-63
2023/05/10 12:07:52;;;;;;;;;14.67;12.00;25.70;41.00;;;;;;111569;1238;50899;-63
2023/05/10 12:10:26;;;;;;;;;12.00;11.00;25.70;40.90;;;;;;111668;1240;45134;-64
2023/05/10 12:12:53;;;;;;;;;13.75;11.75;25.70;41.00;;;;;;111486;1242;56169;-64
2023/05/10 12:15:24;;;;;;;;;17.00;14.00;25.70;41.00;;;;;;111506;1237;53942;-62
2023/05/10 12:17:51;;;;;;;;;15.00;14.00;25.60;41.20;;;;;;111699;1235;50060;-63
2023/05/10 12:20:20;;;;;;;;;12.00;11.00;25.70;41.00;;;;;;111695;1237;50723;-64
2023/05/10 12:22:55;;;;;;;;;12.75;11.75;25.60;40.80;;;;;;111709;1237;45985;-62
2023/05/10 12:25:24;;;;;;;;;15.00;13.00;25.60;40.80;;;;;;111684;1235;55992;-63
2023/05/10 12:27:55;;;;;;;;;14.67;13.67;25.60;40.40;;;;;;111701;1235;53845;-63